Tracys Landing, Maryland
Current Conditions -  °F | °C
As of 7:54 PM on Friday 28 Nov 2014 (Local Time) from KNAK Reporting Station
Clear Clear  
Wind Chill: 32°   Ceiling: Unl
Heat Index: 32°   Visibility: 10mi
Dew Point: 17°   Wind: 0mph
Humidity: 54%   Direction: NA
Pressure: 30.3"   Gusts: NA
Location:  38.78°N, 76.6°W
Report Text: KNAK 290054Z AUTO 00000KT 10SM CLR 00/M08 A3030 RMK AO2 SLP264 T00001083
Loading
Personal Weather Stations






























Interactive Weather Map New forecast layout! Learn more

10-Day Weather Forecast

Advertisements
Track Severe Weather on mobile